sensor_id;sensor_type;location;lat;lon;timestamp;P1;durP1;ratioP1;P2;durP2;ratioP2
78968;SDS011;68369;51.050;17.018;2023-08-06T00:03:01;2.00;;;1.80;;
78968;SDS011;68369;51.050;17.018;2023-08-06T00:05:48;1.70;;;1.60;;
78968;SDS011;68369;51.050;17.018;2023-08-06T00:08:34;1.70;;;1.40;;
78968;SDS011;68369;51.050;17.018;2023-08-06T00:18:09;2.60;;;1.40;;
78968;SDS011;68369;51.050;17.018;2023-08-06T00:20:55;1.50;;;1.30;;
78968;SDS011;68369;51.050;17.018;2023-08-06T00:23:41;2.50;;;1.20;;
78968;SDS011;68369;51.050;17.018;2023-08-06T00:29:30;1.60;;;1.20;;
78968;SDS011;68369;51.050;17.018;2023-08-06T00:32:17;5.30;;;1.30;;
78968;SDS011;68369;51.050;17.018;2023-08-06T00:35:02;1.40;;;1.20;;
78968;SDS011;68369;51.050;17.018;2023-08-06T00:37:52;2.30;;;1.30;;
78968;SDS011;68369;51.050;17.018;2023-08-06T00:40:38;0.90;;;0.70;;
78968;SDS011;68369;51.050;17.018;2023-08-06T00:43:23;1.50;;;0.90;;
78968;SDS011;68369;51.050;17.018;2023-08-06T00:46:09;1.90;;;1.20;;
78968;SDS011;68369;51.050;17.018;2023-08-06T00:48:57;2.50;;;0.90;;
78968;SDS011;68369;51.050;17.018;2023-08-06T00:51:44;1.40;;;0.90;;
78968;SDS011;68369;51.050;17.018;2023-08-06T00:54:29;1.00;;;0.70;;
78968;SDS011;68369;51.050;17.018;2023-08-06T00:57:20;2.00;;;0.50;;
78968;SDS011;68369;51.050;17.018;2023-08-06T01:00:11;1.10;;;0.50;;
78968;SDS011;68369;51.050;17.018;2023-08-06T01:03:00;2.80;;;0.90;;
78968;SDS011;68369;51.050;17.018;2023-08-06T01:05:46;2.00;;;0.90;;
78968;SDS011;68369;51.050;17.018;2023-08-06T01:14:43;3.80;;;0.70;;
78968;SDS011;68369;51.050;17.018;2023-08-06T01:18:03;1.30;;;0.70;;
78968;SDS011;68369;51.050;17.018;2023-08-06T01:20:50;3.20;;;0.80;;
78968;SDS011;68369;51.050;17.018;2023-08-06T01:23:36;1.80;;;0.50;;
78968;SDS011;68369;51.050;17.018;2023-08-06T01:26:24;2.90;;;0.50;;
78968;SDS011;68369;51.050;17.018;2023-08-06T01:29:32;2.10;;;0.60;;
78968;SDS011;68369;51.050;17.018;2023-08-06T01:32:26;2.00;;;0.40;;
78968;SDS011;68369;51.050;17.018;2023-08-06T01:35:16;1.90;;;0.50;;
78968;SDS011;68369;51.050;17.018;2023-08-06T01:38:05;2.60;;;0.80;;
78968;SDS011;68369;51.050;17.018;2023-08-06T01:40:51;2.20;;;0.50;;
78968;SDS011;68369;51.050;17.018;2023-08-06T01:43:36;0.90;;;0.40;;
78968;SDS011;68369;51.050;17.018;2023-08-06T01:46:22;1.80;;;0.50;;
78968;SDS011;68369;51.050;17.018;2023-08-06T01:49:08;1.10;;;0.40;;
78968;SDS011;68369;51.050;17.018;2023-08-06T01:51:54;0.70;;;0.60;;
78968;SDS011;68369;51.050;17.018;2023-08-06T01:54:39;1.70;;;0.60;;
78968;SDS011;68369;51.050;17.018;2023-08-06T01:57:25;0.90;;;0.50;;
78968;SDS011;68369;51.050;17.018;2023-08-06T02:00:11;4.00;;;0.60;;
78968;SDS011;68369;51.050;17.018;2023-08-06T02:02:59;0.90;;;0.50;;
78968;SDS011;68369;51.050;17.018;2023-08-06T02:05:47;0.70;;;0.50;;
78968;SDS011;68369;51.050;17.018;2023-08-06T02:08:32;2.20;;;0.60;;
78968;SDS011;68369;51.050;17.018;2023-08-06T02:11:18;1.60;;;0.60;;
78968;SDS011;68369;51.050;17.018;2023-08-06T02:14:04;1.50;;;0.50;;
78968;SDS011;68369;51.050;17.018;2023-08-06T02:16:50;1.80;;;0.40;;
78968;SDS011;68369;51.050;17.018;2023-08-06T02:19:35;0.80;;;0.50;;
78968;SDS011;68369;51.050;17.018;2023-08-06T02:22:21;0.80;;;0.40;;
78968;SDS011;68369;51.050;17.018;2023-08-06T02:25:08;1.40;;;0.40;;
78968;SDS011;68369;51.050;17.018;2023-08-06T02:27:54;0.70;;;0.20;;
78968;SDS011;68369;51.050;17.018;2023-08-06T02:30:39;0.50;;;0.20;;
78968;SDS011;68369;51.050;17.018;2023-08-06T02:33:25;0.30;;;0.20;;
78968;SDS011;68369;51.050;17.018;2023-08-06T02:36:11;4.40;;;0.50;;
78968;SDS011;68369;51.050;17.018;2023-08-06T02:38:56;0.90;;;0.20;;
78968;SDS011;68369;51.050;17.018;2023-08-06T02:41:44;1.30;;;0.20;;
78968;SDS011;68369;51.050;17.018;2023-08-06T02:44:30;0.50;;;0.30;;
78968;SDS011;68369;51.050;17.018;2023-08-06T02:47:15;0.30;;;0.20;;
78968;SDS011;68369;51.050;17.018;2023-08-06T02:50:01;0.90;;;0.20;;
78968;SDS011;68369;51.050;17.018;2023-08-06T02:52:46;0.60;;;0.20;;
78968;SDS011;68369;51.050;17.018;2023-08-06T02:55:34;0.90;;;0.20;;
78968;SDS011;68369;51.050;17.018;2023-08-06T02:58:20;1.20;;;0.20;;
78968;SDS011;68369;51.050;17.018;2023-08-06T03:01:07;0.40;;;0.20;;
78968;SDS011;68369;51.050;17.018;2023-08-06T03:03:53;0.40;;;0.20;;
78968;SDS011;68369;51.050;17.018;2023-08-06T03:06:38;0.30;;;0.10;;
78968;SDS011;68369;51.050;17.018;2023-08-06T03:09:23;0.30;;;0.10;;
78968;SDS011;68369;51.050;17.018;2023-08-06T03:12:08;0.30;;;0.10;;
78968;SDS011;68369;51.050;17.018;2023-08-06T03:14:54;0.80;;;0.10;;
78968;SDS011;68369;51.050;17.018;2023-08-06T03:17:39;1.50;;;0.10;;
78968;SDS011;68369;51.050;17.018;2023-08-06T03:20:25;1.10;;;0.10;;
78968;SDS011;68369;51.050;17.018;2023-08-06T03:23:10;0.20;;;0.10;;
78968;SDS011;68369;51.050;17.018;2023-08-06T03:25:56;0.20;;;0.10;;
78968;SDS011;68369;51.050;17.018;2023-08-06T03:28:41;0.20;;;0.10;;
78968;SDS011;68369;51.050;17.018;2023-08-06T03:31:27;0.20;;;0.10;;
78968;SDS011;68369;51.050;17.018;2023-08-06T03:34:12;0.30;;;0.20;;
78968;SDS011;68369;51.050;17.018;2023-08-06T03:36:57;0.70;;;0.10;;
78968;SDS011;68369;51.050;17.018;2023-08-06T03:39:42;0.10;;;0.10;;
78968;SDS011;68369;51.050;17.018;2023-08-06T03:42:27;1.00;;;0.10;;
78968;SDS011;68369;51.050;17.018;2023-08-06T03:45:12;0.20;;;0.10;;
78968;SDS011;68369;51.050;17.018;2023-08-06T03:47:58;0.20;;;0.00;;
78968;SDS011;68369;51.050;17.018;2023-08-06T04:00:08;0.60;;;0.00;;
78968;SDS011;68369;51.050;17.018;2023-08-06T04:02:55;0.10;;;0.10;;
78968;SDS011;68369;51.050;17.018;2023-08-06T04:05:41;4.00;;;0.10;;
78968;SDS011;68369;51.050;17.018;2023-08-06T04:08:26;0.00;;;0.00;;
78968;SDS011;68369;51.050;17.018;2023-08-06T04:11:12;0.80;;;0.00;;
78968;SDS011;68369;51.050;17.018;2023-08-06T04:13:58;1.30;;;0.10;;
78968;SDS011;68369;51.050;17.018;2023-08-06T04:16:44;0.60;;;0.10;;
78968;SDS011;68369;51.050;17.018;2023-08-06T04:19:34;0.10;;;0.00;;
78968;SDS011;68369;51.050;17.018;2023-08-06T04:22:20;0.40;;;0.00;;
78968;SDS011;68369;51.050;17.018;2023-08-06T04:25:07;0.20;;;0.10;;
78968;SDS011;68369;51.050;17.018;2023-08-06T04:27:55;0.10;;;0.00;;
78968;SDS011;68369;51.050;17.018;2023-08-06T04:30:40;0.10;;;0.00;;
78968;SDS011;68369;51.050;17.018;2023-08-06T04:33:27;3.10;;;0.30;;
78968;SDS011;68369;51.050;17.018;2023-08-06T04:45:30;0.20;;;0.10;;
78968;SDS011;68369;51.050;17.018;2023-08-06T04:48:17;0.60;;;0.10;;
78968;SDS011;68369;51.050;17.018;2023-08-06T04:51:09;0.60;;;0.20;;
78968;SDS011;68369;51.050;17.018;2023-08-06T04:53:56;0.20;;;0.10;;
78968;SDS011;68369;51.050;17.018;2023-08-06T04:56:42;0.70;;;0.20;;
78968;SDS011;68369;51.050;17.018;2023-08-06T04:59:28;0.30;;;0.10;;
78968;SDS011;68369;51.050;17.018;2023-08-06T05:02:13;0.20;;;0.20;;
78968;SDS011;68369;51.050;17.018;2023-08-06T05:04:59;0.20;;;0.10;;
78968;SDS011;68369;51.050;17.018;2023-08-06T05:07:47;1.00;;;0.20;;
78968;SDS011;68369;51.050;17.018;2023-08-06T05:10:37;0.40;;;0.00;;
78968;SDS011;68369;51.050;17.018;2023-08-06T05:17:05;0.60;;;0.40;;
78968;SDS011;68369;51.050;17.018;2023-08-06T05:19:52;0.60;;;0.20;;
78968;SDS011;68369;51.050;17.018;2023-08-06T05:22:38;0.40;;;0.10;;
78968;SDS011;68369;51.050;17.018;2023-08-06T05:25:24;0.10;;;0.10;;
78968;SDS011;68369;51.050;17.018;2023-08-06T05:28:09;0.20;;;0.20;;
78968;SDS011;68369;51.050;17.018;2023-08-06T05:30:55;0.70;;;0.60;;
78968;SDS011;68369;51.050;17.018;2023-08-06T05:33:42;1.20;;;0.30;;
78968;SDS011;68369;51.050;17.018;2023-08-06T05:36:27;0.70;;;0.10;;
78968;SDS011;68369;51.050;17.018;2023-08-06T05:39:16;0.40;;;0.10;;
78968;SDS011;68369;51.050;17.018;2023-08-06T05:42:02;0.30;;;0.10;;
78968;SDS011;68369;51.050;17.018;2023-08-06T05:44:54;0.50;;;0.10;;
78968;SDS011;68369;51.050;17.018;2023-08-06T05:47:39;0.90;;;0.00;;
78968;SDS011;68369;51.050;17.018;2023-08-06T05:50:25;0.10;;;0.00;;
78968;SDS011;68369;51.050;17.018;2023-08-06T05:53:14;0.10;;;0.00;;
78968;SDS011;68369;51.050;17.018;2023-08-06T05:56:01;0.10;;;0.10;;
78968;SDS011;68369;51.050;17.018;2023-08-06T05:58:46;1.20;;;0.20;;
78968;SDS011;68369;51.050;17.018;2023-08-06T06:01:33;1.10;;;0.20;;
78968;SDS011;68369;51.050;17.018;2023-08-06T06:04:19;0.00;;;0.00;;
78968;SDS011;68369;51.050;17.018;2023-08-06T06:07:04;0.80;;;0.10;;
78968;SDS011;68369;51.050;17.018;2023-08-06T06:09:50;0.50;;;0.00;;
78968;SDS011;68369;51.050;17.018;2023-08-06T06:12:38;0.30;;;0.00;;
78968;SDS011;68369;51.050;17.018;2023-08-06T06:15:24;1.20;;;0.10;;
78968;SDS011;68369;51.050;17.018;2023-08-06T06:18:10;0.20;;;0.00;;
78968;SDS011;68369;51.050;17.018;2023-08-06T06:20:55;0.60;;;0.20;;
78968;SDS011;68369;51.050;17.018;2023-08-06T06:23:41;0.20;;;0.10;;
78968;SDS011;68369;51.050;17.018;2023-08-06T06:26:27;0.20;;;0.00;;
78968;SDS011;68369;51.050;17.018;2023-08-06T06:29:16;0.20;;;0.10;;
78968;SDS011;68369;51.050;17.018;2023-08-06T06:32:01;0.40;;;0.10;;
78968;SDS011;68369;51.050;17.018;2023-08-06T06:34:47;0.40;;;0.10;;
78968;SDS011;68369;51.050;17.018;2023-08-06T06:37:32;0.30;;;0.10;;
78968;SDS011;68369;51.050;17.018;2023-08-06T06:40:18;0.40;;;0.30;;
78968;SDS011;68369;51.050;17.018;2023-08-06T06:43:04;0.60;;;0.20;;
78968;SDS011;68369;51.050;17.018;2023-08-06T06:45:55;0.70;;;0.10;;
78968;SDS011;68369;51.050;17.018;2023-08-06T06:48:44;0.50;;;0.20;;
78968;SDS011;68369;51.050;17.018;2023-08-06T06:51:31;0.30;;;0.00;;
78968;SDS011;68369;51.050;17.018;2023-08-06T06:54:18;0.90;;;0.20;;
78968;SDS011;68369;51.050;17.018;2023-08-06T06:57:05;0.30;;;0.10;;
78968;SDS011;68369;51.050;17.018;2023-08-06T06:59:51;0.60;;;0.10;;
78968;SDS011;68369;51.050;17.018;2023-08-06T07:02:37;0.30;;;0.10;;
78968;SDS011;68369;51.050;17.018;2023-08-06T07:05:24;0.50;;;0.10;;
78968;SDS011;68369;51.050;17.018;2023-08-06T07:08:09;0.20;;;0.10;;
78968;SDS011;68369;51.050;17.018;2023-08-06T07:11:03;0.30;;;0.20;;
78968;SDS011;68369;51.050;17.018;2023-08-06T07:13:49;0.30;;;0.10;;
78968;SDS011;68369;51.050;17.018;2023-08-06T07:16:43;0.40;;;0.10;;
78968;SDS011;68369;51.050;17.018;2023-08-06T07:19:29;0.10;;;0.00;;
78968;SDS011;68369;51.050;17.018;2023-08-06T07:22:15;0.20;;;0.10;;
78968;SDS011;68369;51.050;17.018;2023-08-06T07:25:01;0.80;;;0.40;;
78968;SDS011;68369;51.050;17.018;2023-08-06T07:27:47;0.10;;;0.10;;
78968;SDS011;68369;51.050;17.018;2023-08-06T07:30:33;0.70;;;0.10;;
78968;SDS011;68369;51.050;17.018;2023-08-06T07:33:19;0.30;;;0.20;;
78968;SDS011;68369;51.050;17.018;2023-08-06T07:36:11;0.30;;;0.10;;
78968;SDS011;68369;51.050;17.018;2023-08-06T07:39:02;0.60;;;0.30;;
78968;SDS011;68369;51.050;17.018;2023-08-06T07:41:53;0.70;;;0.20;;
78968;SDS011;68369;51.050;17.018;2023-08-06T07:44:40;0.20;;;0.20;;
78968;SDS011;68369;51.050;17.018;2023-08-06T07:47:28;0.70;;;0.10;;
78968;SDS011;68369;51.050;17.018;2023-08-06T07:50:16;0.10;;;0.10;;
78968;SDS011;68369;51.050;17.018;2023-08-06T07:53:01;0.30;;;0.20;;
78968;SDS011;68369;51.050;17.018;2023-08-06T07:55:53;1.10;;;0.10;;
78968;SDS011;68369;51.050;17.018;2023-08-06T07:58:41;0.60;;;0.30;;
78968;SDS011;68369;51.050;17.018;2023-08-06T08:01:27;0.50;;;0.30;;
78968;SDS011;68369;51.050;17.018;2023-08-06T08:04:12;0.40;;;0.20;;
78968;SDS011;68369;51.050;17.018;2023-08-06T08:06:59;1.60;;;0.40;;
78968;SDS011;68369;51.050;17.018;2023-08-06T08:09:45;0.70;;;0.40;;
78968;SDS011;68369;51.050;17.018;2023-08-06T08:12:34;1.00;;;0.40;;
78968;SDS011;68369;51.050;17.018;2023-08-06T08:15:19;0.70;;;0.70;;
78968;SDS011;68369;51.050;17.018;2023-08-06T08:18:06;0.60;;;0.50;;
78968;SDS011;68369;51.050;17.018;2023-08-06T08:20:52;1.10;;;0.60;;
78968;SDS011;68369;51.050;17.018;2023-08-06T08:23:39;0.70;;;0.50;;
78968;SDS011;68369;51.050;17.018;2023-08-06T08:26:30;1.70;;;0.50;;
78968;SDS011;68369;51.050;17.018;2023-08-06T08:29:15;0.50;;;0.40;;
78968;SDS011;68369;51.050;17.018;2023-08-06T08:32:01;0.90;;;0.50;;
78968;SDS011;68369;51.050;17.018;2023-08-06T08:34:47;0.20;;;0.20;;
78968;SDS011;68369;51.050;17.018;2023-08-06T08:37:36;0.60;;;0.20;;
78968;SDS011;68369;51.050;17.018;2023-08-06T08:40:22;0.70;;;0.60;;
78968;SDS011;68369;51.050;17.018;2023-08-06T08:46:09;0.30;;;0.20;;
78968;SDS011;68369;51.050;17.018;2023-08-06T08:48:59;0.60;;;0.20;;
78968;SDS011;68369;51.050;17.018;2023-08-06T08:51:48;0.10;;;0.10;;
78968;SDS011;68369;51.050;17.018;2023-08-06T08:54:41;0.40;;;0.20;;
78968;SDS011;68369;51.050;17.018;2023-08-06T08:57:32;0.40;;;0.20;;
78968;SDS011;68369;51.050;17.018;2023-08-06T09:00:18;0.50;;;0.20;;
78968;SDS011;68369;51.050;17.018;2023-08-06T09:03:05;0.50;;;0.30;;
78968;SDS011;68369;51.050;17.018;2023-08-06T09:05:57;0.30;;;0.20;;
78968;SDS011;68369;51.050;17.018;2023-08-06T09:09:06;1.50;;;0.50;;
78968;SDS011;68369;51.050;17.018;2023-08-06T09:11:54;0.20;;;0.10;;
78968;SDS011;68369;51.050;17.018;2023-08-06T09:14:46;1.70;;;0.80;;
78968;SDS011;68369;51.050;17.018;2023-08-06T09:17:32;0.90;;;0.40;;
78968;SDS011;68369;51.050;17.018;2023-08-06T09:20:18;0.30;;;0.20;;
78968;SDS011;68369;51.050;17.018;2023-08-06T09:23:08;0.30;;;0.10;;
78968;SDS011;68369;51.050;17.018;2023-08-06T09:25:57;0.10;;;0.10;;
78968;SDS011;68369;51.050;17.018;2023-08-06T09:28:49;0.60;;;0.10;;
78968;SDS011;68369;51.050;17.018;2023-08-06T09:31:41;0.50;;;0.10;;
78968;SDS011;68369;51.050;17.018;2023-08-06T09:34:40;1.20;;;0.20;;
78968;SDS011;68369;51.050;17.018;2023-08-06T09:37:27;0.20;;;0.20;;
78968;SDS011;68369;51.050;17.018;2023-08-06T09:40:31;0.70;;;0.10;;
78968;SDS011;68369;51.050;17.018;2023-08-06T09:43:22;0.20;;;0.10;;
78968;SDS011;68369;51.050;17.018;2023-08-06T09:52:41;0.90;;;0.20;;
78968;SDS011;68369;51.050;17.018;2023-08-06T09:55:28;0.50;;;0.20;;
78968;SDS011;68369;51.050;17.018;2023-08-06T09:58:16;1.20;;;0.20;;
78968;SDS011;68369;51.050;17.018;2023-08-06T10:01:01;0.50;;;0.30;;
78968;SDS011;68369;51.050;17.018;2023-08-06T10:03:50;0.40;;;0.20;;
78968;SDS011;68369;51.050;17.018;2023-08-06T10:06:38;1.30;;;0.30;;
78968;SDS011;68369;51.050;17.018;2023-08-06T10:12:15;1.50;;;0.20;;
78968;SDS011;68369;51.050;17.018;2023-08-06T10:15:08;0.30;;;0.10;;
78968;SDS011;68369;51.050;17.018;2023-08-06T10:18:00;0.10;;;0.10;;
78968;SDS011;68369;51.050;17.018;2023-08-06T10:20:49;1.00;;;0.40;;
78968;SDS011;68369;51.050;17.018;2023-08-06T10:23:36;0.80;;;0.20;;
78968;SDS011;68369;51.050;17.018;2023-08-06T10:26:29;0.60;;;0.30;;
78968;SDS011;68369;51.050;17.018;2023-08-06T10:29:35;0.50;;;0.30;;
78968;SDS011;68369;51.050;17.018;2023-08-06T10:32:36;0.20;;;0.10;;
78968;SDS011;68369;51.050;17.018;2023-08-06T10:38:28;0.80;;;0.50;;
78968;SDS011;68369;51.050;17.018;2023-08-06T10:41:28;0.50;;;0.20;;
78968;SDS011;68369;51.050;17.018;2023-08-06T10:44:15;1.80;;;0.30;;
78968;SDS011;68369;51.050;17.018;2023-08-06T10:47:25;0.70;;;0.40;;
78968;SDS011;68369;51.050;17.018;2023-08-06T10:50:16;0.40;;;0.30;;
78968;SDS011;68369;51.050;17.018;2023-08-06T10:53:04;0.80;;;0.30;;
78968;SDS011;68369;51.050;17.018;2023-08-06T10:55:55;0.70;;;0.10;;
78968;SDS011;68369;51.050;17.018;2023-08-06T10:58:41;0.80;;;0.20;;
78968;SDS011;68369;51.050;17.018;2023-08-06T11:01:29;1.80;;;0.40;;
78968;SDS011;68369;51.050;17.018;2023-08-06T11:04:23;0.60;;;0.20;;
78968;SDS011;68369;51.050;17.018;2023-08-06T11:07:16;0.30;;;0.20;;
78968;SDS011;68369;51.050;17.018;2023-08-06T11:10:08;0.50;;;0.20;;
78968;SDS011;68369;51.050;17.018;2023-08-06T11:13:00;0.30;;;0.20;;
78968;SDS011;68369;51.050;17.018;2023-08-06T11:15:57;2.50;;;1.60;;
78968;SDS011;68369;51.050;17.018;2023-08-06T11:18:45;1.70;;;0.60;;
78968;SDS011;68369;51.050;17.018;2023-08-06T11:21:33;0.30;;;0.20;;
78968;SDS011;68369;51.050;17.018;2023-08-06T11:24:23;0.40;;;0.20;;
78968;SDS011;68369;51.050;17.018;2023-08-06T11:27:15;0.30;;;0.10;;
78968;SDS011;68369;51.050;17.018;2023-08-06T11:30:04;0.20;;;0.20;;
78968;SDS011;68369;51.050;17.018;2023-08-06T11:32:56;0.40;;;0.30;;
78968;SDS011;68369;51.050;17.018;2023-08-06T11:35:42;0.40;;;0.30;;
78968;SDS011;68369;51.050;17.018;2023-08-06T11:38:28;0.40;;;0.20;;
78968;SDS011;68369;51.050;17.018;2023-08-06T11:41:14;0.60;;;0.30;;
78968;SDS011;68369;51.050;17.018;2023-08-06T11:44:06;0.40;;;0.20;;
78968;SDS011;68369;51.050;17.018;2023-08-06T11:47:03;0.60;;;0.10;;
78968;SDS011;68369;51.050;17.018;2023-08-06T11:53:11;0.40;;;0.30;;
78968;SDS011;68369;51.050;17.018;2023-08-06T11:56:11;0.50;;;0.20;;
78968;SDS011;68369;51.050;17.018;2023-08-06T11:58:57;0.20;;;0.20;;
78968;SDS011;68369;51.050;17.018;2023-08-06T12:01:43;0.60;;;0.30;;
78968;SDS011;68369;51.050;17.018;2023-08-06T12:08:15;1.90;;;0.40;;
78968;SDS011;68369;51.050;17.018;2023-08-06T12:11:03;0.50;;;0.30;;
78968;SDS011;68369;51.050;17.018;2023-08-06T12:13:54;0.30;;;0.20;;
78968;SDS011;68369;51.050;17.018;2023-08-06T12:16:43;0.60;;;0.30;;
78968;SDS011;68369;51.050;17.018;2023-08-06T12:19:29;1.60;;;0.30;;
78968;SDS011;68369;51.050;17.018;2023-08-06T12:22:17;0.60;;;0.50;;
78968;SDS011;68369;51.050;17.018;2023-08-06T12:25:11;0.40;;;0.20;;
78968;SDS011;68369;51.050;17.018;2023-08-06T12:28:04;0.70;;;0.30;;
78968;SDS011;68369;51.050;17.018;2023-08-06T12:30:52;0.80;;;0.10;;
78968;SDS011;68369;51.050;17.018;2023-08-06T12:33:41;1.90;;;1.10;;
78968;SDS011;68369;51.050;17.018;2023-08-06T12:36:27;0.90;;;0.50;;
78968;SDS011;68369;51.050;17.018;2023-08-06T12:39:13;0.40;;;0.30;;
78968;SDS011;68369;51.050;17.018;2023-08-06T12:42:01;0.60;;;0.40;;
78968;SDS011;68369;51.050;17.018;2023-08-06T12:44:55;0.50;;;0.30;;
78968;SDS011;68369;51.050;17.018;2023-08-06T12:47:44;0.70;;;0.50;;
78968;SDS011;68369;51.050;17.018;2023-08-06T12:50:29;0.70;;;0.40;;
78968;SDS011;68369;51.050;17.018;2023-08-06T12:53:20;0.90;;;0.30;;
78968;SDS011;68369;51.050;17.018;2023-08-06T12:59:36;1.10;;;0.50;;
78968;SDS011;68369;51.050;17.018;2023-08-06T13:02:24;0.30;;;0.20;;
78968;SDS011;68369;51.050;17.018;2023-08-06T13:05:31;0.80;;;0.30;;
78968;SDS011;68369;51.050;17.018;2023-08-06T13:08:18;1.20;;;0.50;;
78968;SDS011;68369;51.050;17.018;2023-08-06T13:11:08;0.50;;;0.30;;
78968;SDS011;68369;51.050;17.018;2023-08-06T13:13:58;1.10;;;0.30;;
78968;SDS011;68369;51.050;17.018;2023-08-06T13:16:53;0.40;;;0.30;;
78968;SDS011;68369;51.050;17.018;2023-08-06T13:19:40;0.50;;;0.40;;
78968;SDS011;68369;51.050;17.018;2023-08-06T13:22:36;0.70;;;0.30;;
78968;SDS011;68369;51.050;17.018;2023-08-06T13:25:25;1.90;;;1.00;;
78968;SDS011;68369;51.050;17.018;2023-08-06T13:28:11;0.50;;;0.20;;
78968;SDS011;68369;51.050;17.018;2023-08-06T13:30:59;0.60;;;0.50;;
78968;SDS011;68369;51.050;17.018;2023-08-06T13:33:51;0.90;;;0.30;;
78968;SDS011;68369;51.050;17.018;2023-08-06T13:36:50;0.80;;;0.40;;
78968;SDS011;68369;51.050;17.018;2023-08-06T13:39:42;1.80;;;0.50;;
78968;SDS011;68369;51.050;17.018;2023-08-06T13:42:30;0.50;;;0.30;;
78968;SDS011;68369;51.050;17.018;2023-08-06T13:45:21;0.90;;;0.40;;
78968;SDS011;68369;51.050;17.018;2023-08-06T13:48:12;1.60;;;0.70;;
78968;SDS011;68369;51.050;17.018;2023-08-06T13:51:00;2.00;;;0.50;;
78968;SDS011;68369;51.050;17.018;2023-08-06T13:53:47;1.00;;;0.70;;
78968;SDS011;68369;51.050;17.018;2023-08-06T13:56:34;0.60;;;0.50;;
78968;SDS011;68369;51.050;17.018;2023-08-06T13:59:23;0.80;;;0.60;;
78968;SDS011;68369;51.050;17.018;2023-08-06T14:02:11;1.30;;;0.40;;
78968;SDS011;68369;51.050;17.018;2023-08-06T14:05:00;0.90;;;0.40;;
78968;SDS011;68369;51.050;17.018;2023-08-06T14:07:46;0.50;;;0.40;;
78968;SDS011;68369;51.050;17.018;2023-08-06T14:10:32;0.50;;;0.30;;
78968;SDS011;68369;51.050;17.018;2023-08-06T14:13:21;1.40;;;0.50;;
78968;SDS011;68369;51.050;17.018;2023-08-06T14:16:10;1.00;;;0.50;;
78968;SDS011;68369;51.050;17.018;2023-08-06T14:18:58;1.00;;;0.40;;
78968;SDS011;68369;51.050;17.018;2023-08-06T14:21:46;0.80;;;0.30;;
78968;SDS011;68369;51.050;17.018;2023-08-06T14:24:37;1.40;;;0.90;;
78968;SDS011;68369;51.050;17.018;2023-08-06T14:27:29;0.80;;;0.50;;
78968;SDS011;68369;51.050;17.018;2023-08-06T14:30:14;1.60;;;0.30;;
78968;SDS011;68369;51.050;17.018;2023-08-06T14:33:02;0.70;;;0.60;;
78968;SDS011;68369;51.050;17.018;2023-08-06T14:36:31;1.10;;;0.40;;
78968;SDS011;68369;51.050;17.018;2023-08-06T14:39:21;1.00;;;0.30;;
78968;SDS011;68369;51.050;17.018;2023-08-06T14:42:08;0.90;;;0.50;;
78968;SDS011;68369;51.050;17.018;2023-08-06T14:44:58;1.30;;;0.60;;
78968;SDS011;68369;51.050;17.018;2023-08-06T14:47:50;1.00;;;0.30;;
78968;SDS011;68369;51.050;17.018;2023-08-06T14:50:41;0.60;;;0.40;;
78968;SDS011;68369;51.050;17.018;2023-08-06T14:53:30;1.40;;;0.70;;
78968;SDS011;68369;51.050;17.018;2023-08-06T14:59:06;0.80;;;0.40;;
78968;SDS011;68369;51.050;17.018;2023-08-06T15:01:53;2.40;;;0.60;;
78968;SDS011;68369;51.050;17.018;2023-08-06T15:04:41;0.70;;;0.50;;
78968;SDS011;68369;51.050;17.018;2023-08-06T15:07:29;0.70;;;0.50;;
78968;SDS011;68369;51.050;17.018;2023-08-06T15:10:20;0.80;;;0.60;;
78968;SDS011;68369;51.050;17.018;2023-08-06T15:13:13;0.60;;;0.50;;
78968;SDS011;68369;51.050;17.018;2023-08-06T15:16:07;0.70;;;0.70;;
78968;SDS011;68369;51.050;17.018;2023-08-06T15:18:55;0.90;;;0.80;;
78968;SDS011;68369;51.050;17.018;2023-08-06T15:21:46;1.70;;;0.90;;
78968;SDS011;68369;51.050;17.018;2023-08-06T15:24:33;1.00;;;0.80;;
78968;SDS011;68369;51.050;17.018;2023-08-06T15:27:23;1.20;;;0.60;;
78968;SDS011;68369;51.050;17.018;2023-08-06T15:30:32;1.10;;;0.90;;
78968;SDS011;68369;51.050;17.018;2023-08-06T15:33:23;1.60;;;0.80;;
78968;SDS011;68369;51.050;17.018;2023-08-06T15:36:09;1.20;;;0.70;;
78968;SDS011;68369;51.050;17.018;2023-08-06T15:38:55;1.80;;;0.90;;
78968;SDS011;68369;51.050;17.018;2023-08-06T15:41:42;1.30;;;0.90;;
78968;SDS011;68369;51.050;17.018;2023-08-06T15:44:29;1.90;;;1.00;;
78968;SDS011;68369;51.050;17.018;2023-08-06T15:47:20;1.20;;;0.90;;
78968;SDS011;68369;51.050;17.018;2023-08-06T15:50:09;1.30;;;0.60;;
78968;SDS011;68369;51.050;17.018;2023-08-06T15:53:00;2.20;;;0.60;;
78968;SDS011;68369;51.050;17.018;2023-08-06T15:55:46;2.50;;;0.80;;
78968;SDS011;68369;51.050;17.018;2023-08-06T15:58:34;1.30;;;0.80;;
78968;SDS011;68369;51.050;17.018;2023-08-06T16:01:22;0.80;;;0.60;;
78968;SDS011;68369;51.050;17.018;2023-08-06T16:04:10;1.80;;;1.00;;
78968;SDS011;68369;51.050;17.018;2023-08-06T16:06:56;0.80;;;0.60;;
78968;SDS011;68369;51.050;17.018;2023-08-06T16:09:42;2.60;;;1.30;;
78968;SDS011;68369;51.050;17.018;2023-08-06T16:12:56;1.00;;;0.80;;
78968;SDS011;68369;51.050;17.018;2023-08-06T16:15:41;1.00;;;0.80;;
78968;SDS011;68369;51.050;17.018;2023-08-06T16:18:29;1.20;;;0.80;;
78968;SDS011;68369;51.050;17.018;2023-08-06T16:21:15;1.00;;;0.80;;
78968;SDS011;68369;51.050;17.018;2023-08-06T16:24:01;1.00;;;0.70;;
78968;SDS011;68369;51.050;17.018;2023-08-06T16:26:50;1.40;;;0.80;;
78968;SDS011;68369;51.050;17.018;2023-08-06T16:29:38;1.90;;;0.90;;
78968;SDS011;68369;51.050;17.018;2023-08-06T16:32:24;1.00;;;0.70;;
78968;SDS011;68369;51.050;17.018;2023-08-06T16:35:10;1.60;;;1.10;;
78968;SDS011;68369;51.050;17.018;2023-08-06T16:37:55;2.00;;;0.90;;
78968;SDS011;68369;51.050;17.018;2023-08-06T16:40:41;2.30;;;0.80;;
78968;SDS011;68369;51.050;17.018;2023-08-06T16:43:27;2.70;;;0.70;;
78968;SDS011;68369;51.050;17.018;2023-08-06T16:46:12;1.30;;;0.90;;
78968;SDS011;68369;51.050;17.018;2023-08-06T16:48:53;2.20;;;0.70;;
78968;SDS011;68369;51.050;17.018;2023-08-06T16:51:38;2.80;;;0.70;;
78968;SDS011;68369;51.050;17.018;2023-08-06T17:13:56;2.30;;;1.00;;
78968;SDS011;68369;51.050;17.018;2023-08-06T17:16:48;0.70;;;0.50;;
78968;SDS011;68369;51.050;17.018;2023-08-06T17:19:34;1.10;;;0.70;;
78968;SDS011;68369;51.050;17.018;2023-08-06T17:22:29;1.20;;;0.90;;
78968;SDS011;68369;51.050;17.018;2023-08-06T17:25:18;1.90;;;1.20;;
78968;SDS011;68369;51.050;17.018;2023-08-06T17:31:04;2.40;;;1.00;;
78968;SDS011;68369;51.050;17.018;2023-08-06T17:34:03;2.00;;;0.90;;
78968;SDS011;68369;51.050;17.018;2023-08-06T17:36:51;1.40;;;0.70;;
78968;SDS011;68369;51.050;17.018;2023-08-06T17:39:41;1.60;;;0.60;;
78968;SDS011;68369;51.050;17.018;2023-08-06T17:42:32;1.30;;;1.00;;
78968;SDS011;68369;51.050;17.018;2023-08-06T17:45:24;2.00;;;1.10;;
78968;SDS011;68369;51.050;17.018;2023-08-06T17:48:17;1.90;;;0.90;;
78968;SDS011;68369;51.050;17.018;2023-08-06T17:51:04;1.50;;;1.00;;
78968;SDS011;68369;51.050;17.018;2023-08-06T17:53:53;2.20;;;0.90;;
78968;SDS011;68369;51.050;17.018;2023-08-06T17:56:41;1.50;;;0.90;;
78968;SDS011;68369;51.050;17.018;2023-08-06T17:59:29;1.90;;;1.10;;
78968;SDS011;68369;51.050;17.018;2023-08-06T18:02:18;1.30;;;0.70;;
78968;SDS011;68369;51.050;17.018;2023-08-06T18:08:26;2.50;;;1.10;;
78968;SDS011;68369;51.050;17.018;2023-08-06T18:11:12;2.70;;;1.20;;
78968;SDS011;68369;51.050;17.018;2023-08-06T18:13:58;2.70;;;1.50;;